createdAt,value
2023-02-22T00:03:04.227Z,7.90
2023-02-22T00:08:11.561Z,6.50
2023-02-22T00:13:15.004Z,5.50
2023-02-22T00:18:19.825Z,4.50
2023-02-22T00:23:24.170Z,6.40
2023-02-22T00:28:27.380Z,5.50
2023-02-22T00:33:30.322Z,6.20
2023-02-22T00:38:33.242Z,7.30
2023-02-22T00:43:36.235Z,5.00
2023-02-22T00:48:39.130Z,5.10
2023-02-22T00:53:42.034Z,4.00
2023-02-22T00:58:45.044Z,6.00
2023-02-22T01:03:48.049Z,3.00
2023-02-22T01:08:51.370Z,3.70
2023-02-22T01:13:55.560Z,4.00
2023-02-22T01:18:58.398Z,4.60
2023-02-22T01:24:01.301Z,3.60
2023-02-22T01:29:04.203Z,4.40
2023-02-22T01:34:06.992Z,2.90
2023-02-22T01:39:10.529Z,2.70
2023-02-22T01:44:35.750Z,3.30
2023-02-22T01:49:48.087Z,3.20
2023-02-22T01:54:56.205Z,4.90
2023-02-22T02:00:10.117Z,3.20
2023-02-22T02:05:14.538Z,3.10
2023-02-22T02:10:17.817Z,2.90
2023-02-22T02:15:33.314Z,3.90
2023-02-22T02:21:10.425Z,3.10
2023-02-22T02:26:35.077Z,3.60
2023-02-22T02:31:56.792Z,2.40
2023-02-22T02:37:28.150Z,4.10
2023-02-22T02:42:38.225Z,3.40
2023-02-22T02:47:49.524Z,7.20
2023-02-22T02:52:55.705Z,4.90
2023-02-22T02:57:59.634Z,5.80
2023-02-22T03:03:07.558Z,7.30
2023-02-22T03:08:27.058Z,5.60
2023-02-22T03:18:59.789Z,6.30
2023-02-22T03:24:22.356Z,4.50
2023-02-22T03:29:29.496Z,6.40
2023-02-22T03:34:43.220Z,4.60
2023-02-22T03:39:49.666Z,5.60
2023-02-22T03:44:55.480Z,4.50
2023-02-22T03:50:07.189Z,4.80
2023-02-22T03:55:12.246Z,5.10
2023-02-22T04:00:22.406Z,4.90
2023-02-22T04:12:00.704Z,5.20
2023-02-22T04:17:03.714Z,6.70
2023-02-22T04:22:06.607Z,7.10
2023-02-22T04:27:09.508Z,3.80
2023-02-22T04:32:12.469Z,5.30
2023-02-22T04:37:15.729Z,6.80
2023-02-22T04:42:18.632Z,5.40
2023-02-22T04:47:21.435Z,6.00
2023-02-22T04:52:24.332Z,6.60
2023-02-22T04:57:27.446Z,7.50
2023-02-22T05:02:30.391Z,7.30
2023-02-22T05:07:33.261Z,7.10
2023-02-22T05:12:37.226Z,7.10
2023-02-22T05:17:40.080Z,5.50
2023-02-22T05:22:42.985Z,9.40
2023-02-22T05:27:50.189Z,9.60
2023-02-22T05:32:53.407Z,6.10
2023-02-22T05:37:57.822Z,7.10
2023-02-22T05:43:02.388Z,7.40
2023-02-22T05:48:06.045Z,5.20
2023-02-22T05:53:08.912Z,5.70
2023-02-22T05:58:11.918Z,7.70
2023-02-22T06:03:15.022Z,7.80
2023-02-22T06:08:18.346Z,4.90
2023-02-22T06:13:21.349Z,3.60
2023-02-22T06:18:26.909Z,5.80
2023-02-22T06:23:29.816Z,6.30
2023-02-22T06:28:32.725Z,4.80
2023-02-22T06:33:35.624Z,5.40
2023-02-22T06:38:38.728Z,4.90
2023-02-22T06:43:42.043Z,6.20
2023-02-22T06:48:45.163Z,6.70
2023-02-22T06:53:48.158Z,7.00
2023-02-22T06:58:51.062Z,5.50
2023-02-22T07:03:54.172Z,6.60
2023-02-22T07:08:57.084Z,6.60
2023-02-22T07:14:00.004Z,6.80
2023-02-22T07:19:02.906Z,7.40
2023-02-22T07:24:06.657Z,8.90
2023-02-22T07:29:11.567Z,13.80
2023-02-22T07:34:14.578Z,10.80
2023-02-22T07:39:17.474Z,24.40
2023-02-22T07:44:20.691Z,10.30
2023-02-22T07:49:23.904Z,30.10
2023-02-22T07:54:26.803Z,9.40
2023-02-22T07:59:29.710Z,6.70
2023-02-22T08:04:32.611Z,5.90
2023-02-22T08:09:35.515Z,7.40
2023-02-22T08:14:38.415Z,7.40
2023-02-22T08:19:41.646Z,8.00
2023-02-22T08:24:44.639Z,6.50
2023-02-22T08:29:48.254Z,7.60
2023-02-22T08:34:51.779Z,7.80
2023-02-22T08:39:56.316Z,5.40
2023-02-22T08:44:59.324Z,10.00
2023-02-22T08:50:02.250Z,12.10
2023-02-22T08:55:05.885Z,12.30
2023-02-22T09:00:09.842Z,13.40
2023-02-22T09:05:13.084Z,17.20
2023-02-22T09:10:24.596Z,15.10
2023-02-22T09:15:27.700Z,14.30
2023-02-22T09:20:31.523Z,12.00
2023-02-22T09:25:34.533Z,16.30
2023-02-22T09:30:37.886Z,11.50
2023-02-22T09:35:43.103Z,19.90
2023-02-22T09:40:51.237Z,7.30
2023-02-22T09:46:20.130Z,17.60
2023-02-22T09:56:34.248Z,9.70
2023-02-22T10:01:48.490Z,8.70
2023-02-22T10:07:12.295Z,11.90
2023-02-22T10:12:33.444Z,8.70
2023-02-22T10:17:51.610Z,8.00
2023-02-22T10:23:07.537Z,5.60
2023-02-22T10:28:19.488Z,7.10
2023-02-22T10:33:26.745Z,4.90
2023-02-22T10:38:33.550Z,7.20
2023-02-22T10:43:41.873Z,7.10
2023-02-22T10:48:48.874Z,5.20
2023-02-22T10:54:13.382Z,6.40
2023-02-22T10:59:33.927Z,6.30
2023-02-22T11:04:58.652Z,7.60
2023-02-22T11:10:06.097Z,6.60
2023-02-22T11:15:18.659Z,5.80
2023-02-22T11:20:28.098Z,5.80
2023-02-22T11:25:35.321Z,7.40
2023-02-22T11:30:38.675Z,4.70
2023-02-22T11:35:54.851Z,9.40
2023-02-22T11:41:16.500Z,5.10
2023-02-22T11:46:27.596Z,6.10
2023-02-22T11:51:52.613Z,5.60
2023-02-22T11:57:29.221Z,5.80
2023-02-22T12:03:02.104Z,7.50
2023-02-22T12:08:23.889Z,6.60
2023-02-22T12:13:36.909Z,5.00
2023-02-22T12:19:02.128Z,5.90
2023-02-22T12:24:14.587Z,4.20
2023-02-22T12:29:37.830Z,5.70
2023-02-22T12:34:52.482Z,7.30
2023-02-22T12:40:08.609Z,6.30
2023-02-22T12:45:17.184Z,5.60
2023-02-22T12:50:23.614Z,5.60
2023-02-22T12:55:33.435Z,4.70
2023-02-22T13:05:41.749Z,5.70
2023-02-22T13:11:22.378Z,7.10
2023-02-22T13:16:52.865Z,4.70
2023-02-22T13:22:01.569Z,6.50
2023-02-22T13:27:12.975Z,8.30
2023-02-22T13:32:51.796Z,6.80
2023-02-22T13:38:01.684Z,6.40
2023-02-22T13:43:28.964Z,5.40
2023-02-22T13:48:50.502Z,4.20
2023-02-22T13:54:32.729Z,8.50
2023-02-22T13:59:37.291Z,5.70
2023-02-22T14:04:41.646Z,6.40
2023-02-22T14:09:58.028Z,5.70
2023-02-22T14:15:18.693Z,5.80
2023-02-22T14:20:36.245Z,5.10
2023-02-22T14:25:43.223Z,7.00
2023-02-22T14:30:46.514Z,6.60
2023-02-22T14:35:50.965Z,6.40
2023-02-22T14:40:57.950Z,4.70
2023-02-22T14:46:05.494Z,5.00
2023-02-22T14:51:21.820Z,6.10
2023-02-22T14:56:36.458Z,15.40
2023-02-22T15:01:52.803Z,9.10
2023-02-22T15:07:09.411Z,7.30
2023-02-22T15:12:24.089Z,7.10
2023-02-22T15:17:27.815Z,6.70
2023-02-22T15:22:36.116Z,7.40
2023-02-22T15:27:44.569Z,7.20
2023-02-22T15:33:03.191Z,9.20
2023-02-22T15:38:13.423Z,9.70
2023-02-22T15:43:28.614Z,7.50
2023-02-22T15:48:33.471Z,7.10
2023-02-22T15:53:42.515Z,5.30
2023-02-22T15:58:47.840Z,10.40
2023-02-22T16:03:58.570Z,9.90
2023-02-22T16:09:17.139Z,10.70
2023-02-22T16:14:35.509Z,7.20
2023-02-22T16:19:47.009Z,9.00
2023-02-22T16:24:52.838Z,9.00
2023-02-22T16:30:26.964Z,12.30
2023-02-22T16:35:29.927Z,20.70
2023-02-22T16:40:38.676Z,18.20
2023-02-22T16:45:42.658Z,21.60
2023-02-22T16:50:46.895Z,15.90
2023-02-22T16:55:54.030Z,22.70
2023-02-22T17:00:57.599Z,30.90
2023-02-22T17:06:00.781Z,30.50
2023-02-22T17:11:04.410Z,25.10
2023-02-22T17:16:14.272Z,19.80
2023-02-22T17:21:17.251Z,14.30
2023-02-22T17:26:20.255Z,14.20
2023-02-22T17:31:28.464Z,10.50
2023-02-22T17:36:32.665Z,9.10
2023-02-22T17:41:35.627Z,10.20
2023-02-22T17:46:41.019Z,8.80
2023-02-22T17:51:49.665Z,7.90
2023-02-22T17:56:52.536Z,9.70
2023-02-22T18:01:55.468Z,10.30
2023-02-22T18:06:58.440Z,9.30
2023-02-22T18:12:01.461Z,16.70
2023-02-22T18:17:05.174Z,15.10
2023-02-22T18:22:08.695Z,10.00
2023-02-22T18:27:12.099Z,11.60
2023-02-22T18:32:15.463Z,9.70
2023-02-22T18:37:21.086Z,12.60
2023-02-22T18:42:25.724Z,12.30
2023-02-22T18:47:28.737Z,10.30
2023-02-22T18:52:31.653Z,13.60
2023-02-22T18:57:36.097Z,9.70
2023-02-22T19:02:38.905Z,8.30
2023-02-22T19:07:41.900Z,11.00
2023-02-22T19:12:44.812Z,10.80
2023-02-22T19:17:47.702Z,12.90
2023-02-22T19:22:50.913Z,12.10
2023-02-22T19:27:57.004Z,10.50
2023-02-22T19:33:03.066Z,11.50
2023-02-22T19:38:05.868Z,7.40
2023-02-22T19:43:08.876Z,8.90
2023-02-22T19:48:11.783Z,9.30
2023-02-22T19:53:16.326Z,10.10
2023-02-22T19:58:19.331Z,7.60
2023-02-22T20:03:26.056Z,9.50
2023-02-22T20:08:28.995Z,12.40
2023-02-22T20:13:31.929Z,9.40
2023-02-22T20:18:34.854Z,9.30
2023-02-22T20:23:40.812Z,12.80
2023-02-22T20:28:43.926Z,16.50
2023-02-22T20:33:49.493Z,11.80
2023-02-22T20:38:57.956Z,9.70
2023-02-22T20:44:02.423Z,13.70
2023-02-22T20:49:11.425Z,10.80
2023-02-22T20:54:15.447Z,9.30
2023-02-22T20:59:19.588Z,9.80
2023-02-22T21:04:23.142Z,7.40
2023-02-22T21:09:26.204Z,14.40
2023-02-22T21:14:31.017Z,15.50
2023-02-22T21:19:34.065Z,10.70
2023-02-22T21:24:37.179Z,11.30
2023-02-22T21:29:40.072Z,13.90
2023-02-22T21:34:42.975Z,12.50
2023-02-22T21:39:48.092Z,8.70
2023-02-22T21:44:56.223Z,11.10
2023-02-22T21:49:59.275Z,8.40
2023-02-22T21:55:02.608Z,10.50
2023-02-22T22:00:17.467Z,7.00
2023-02-22T22:05:26.512Z,5.50
2023-02-22T22:10:33.118Z,8.20
2023-02-22T22:15:37.644Z,8.40
2023-02-22T22:20:40.957Z,10.40
2023-02-22T22:25:43.965Z,12.10
2023-02-22T22:30:49.498Z,10.20
2023-02-22T22:35:52.434Z,10.50
2023-02-22T22:41:01.268Z,11.50
2023-02-22T22:46:06.073Z,11.90
2023-02-22T22:51:12.845Z,9.00
2023-02-22T22:56:29.444Z,6.30
2023-02-22T23:01:34.388Z,8.50
2023-02-22T23:06:41.533Z,10.60
2023-02-22T23:11:51.086Z,6.80
2023-02-22T23:17:04.503Z,4.30
2023-02-22T23:22:08.597Z,7.20
2023-02-22T23:27:12.566Z,7.50
2023-02-22T23:32:15.586Z,7.90
2023-02-22T23:37:20.938Z,5.50
2023-02-22T23:42:23.955Z,7.60
2023-02-22T23:47:31.868Z,10.60
2023-02-22T23:52:37.533Z,10.10
2023-02-22T23:57:43.405Z,9.00
